createdAt,value
2022-10-05T00:02:23.703Z,60.86
2022-10-05T00:04:56.459Z,60.86
2022-10-05T00:07:24.645Z,61.79
2022-10-05T00:09:57.163Z,62.41
2022-10-05T00:12:26.343Z,61.93
2022-10-05T00:15:00.269Z,62.25
2022-10-05T00:17:30.186Z,62.53
2022-10-05T00:19:57.012Z,62.41
2022-10-05T00:22:29.809Z,61.71
2022-10-05T00:24:58.908Z,61.57
2022-10-05T00:27:31.179Z,61.43
2022-10-05T00:30:10.864Z,61.26
2022-10-05T00:32:37.510Z,61.39
2022-10-05T00:35:04.552Z,61.64
2022-10-05T00:37:31.226Z,62.43
2022-10-05T00:39:57.915Z,61.58
2022-10-05T00:42:35.182Z,62.09
2022-10-05T00:45:14.804Z,62.26
2022-10-05T00:48:09.174Z,62.30
2022-10-05T00:50:49.097Z,61.82
2022-10-05T00:53:39.930Z,61.92
2022-10-05T00:56:06.558Z,61.74
2022-10-05T00:58:42.047Z,61.25
2022-10-05T01:01:16.637Z,60.84
2022-10-05T01:03:58.581Z,61.54
2022-10-05T01:07:13.361Z,60.97
2022-10-05T01:09:49.170Z,61.70
2022-10-05T01:12:22.729Z,61.78
2022-10-05T01:14:57.317Z,62.67
2022-10-05T01:17:32.814Z,62.92
2022-10-05T01:20:21.330Z,63.44
2022-10-05T01:23:09.572Z,63.34
2022-10-05T01:25:53.479Z,63.95
2022-10-05T01:28:27.954Z,64.33
2022-10-05T01:31:21.429Z,63.79
2022-10-05T01:34:21.222Z,62.58
2022-10-05T01:36:53.863Z,61.79
2022-10-05T01:39:26.515Z,62.12
2022-10-05T01:42:31.474Z,62.24
2022-10-05T01:45:06.252Z,63.05
2022-10-05T01:47:40.869Z,63.56
2022-10-05T01:50:38.638Z,65.71
2022-10-05T01:53:34.682Z,64.86
2022-10-05T01:56:18.415Z,64.34
2022-10-05T01:58:48.191Z,64.17
2022-10-05T02:01:25.303Z,64.49
2022-10-05T02:05:00.443Z,64.27
2022-10-05T02:07:28.813Z,63.97
2022-10-05T02:10:05.939Z,64.60
2022-10-05T02:12:37.109Z,64.16
2022-10-05T02:15:14.939Z,64.46
2022-10-05T02:17:48.319Z,65.58
2022-10-05T02:20:23.697Z,65.73
2022-10-05T02:22:54.729Z,65.67
2022-10-05T02:25:27.352Z,66.10
2022-10-05T02:28:01.116Z,65.84
2022-10-05T02:30:31.546Z,64.87
2022-10-05T02:33:08.371Z,64.94
2022-10-05T02:35:35.089Z,64.54
2022-10-05T02:38:10.750Z,64.57
2022-10-05T02:40:52.667Z,64.54
2022-10-05T02:43:46.284Z,63.30
2022-10-05T02:46:19.058Z,63.46
2022-10-05T02:49:14.490Z,63.41
2022-10-05T02:51:47.287Z,63.19
2022-10-05T02:54:32.632Z,63.19
2022-10-05T02:57:06.445Z,62.93
2022-10-05T02:59:43.308Z,63.21
2022-10-05T03:02:13.821Z,63.37
2022-10-05T03:04:46.773Z,63.27
2022-10-05T03:07:33.444Z,63.27
2022-10-05T03:10:36.470Z,63.33
2022-10-05T03:13:16.757Z,63.54
2022-10-05T03:16:01.972Z,63.82
2022-10-05T03:18:40.433Z,63.77
2022-10-05T03:21:35.931Z,63.77
2022-10-05T03:24:18.211Z,63.84
2022-10-05T03:27:01.059Z,63.87
2022-10-05T03:29:56.702Z,63.73
2022-10-05T03:32:32.305Z,62.58
2022-10-05T03:35:18.012Z,62.65
2022-10-05T03:37:59.167Z,63.00
2022-10-05T03:40:47.273Z,63.52
2022-10-05T03:43:26.939Z,63.55
2022-10-05T03:46:08.612Z,63.66
2022-10-05T03:48:55.126Z,63.91
2022-10-05T03:51:29.630Z,63.66
2022-10-05T03:54:05.594Z,63.31
2022-10-05T03:56:41.770Z,63.56
2022-10-05T03:59:31.551Z,63.30
2022-10-05T04:02:07.878Z,63.07
2022-10-05T04:04:44.142Z,63.19
2022-10-05T04:07:23.813Z,63.10
2022-10-05T04:09:53.001Z,63.16
2022-10-05T04:12:30.682Z,63.09
2022-10-05T04:15:02.921Z,63.35
2022-10-05T04:17:42.333Z,63.18
2022-10-05T04:20:38.060Z,63.13
2022-10-05T04:23:19.245Z,63.20
2022-10-05T04:25:53.934Z,63.30
2022-10-05T04:28:37.546Z,63.39
2022-10-05T04:31:07.038Z,63.33
2022-10-05T04:33:34.541Z,63.10
2022-10-05T04:36:12.796Z,63.42
2022-10-05T04:38:47.541Z,63.46
2022-10-05T04:41:49.698Z,63.39
2022-10-05T04:44:31.357Z,63.46
2022-10-05T04:47:04.214Z,63.53
2022-10-05T04:49:43.124Z,63.68
2022-10-05T04:52:28.175Z,64.31
2022-10-05T04:55:08.606Z,64.85
2022-10-05T04:57:49.505Z,64.88
2022-10-05T05:00:28.613Z,65.07
2022-10-05T05:03:21.734Z,65.90
2022-10-05T05:06:18.377Z,66.85
2022-10-05T05:09:10.940Z,66.51
2022-10-05T05:11:52.982Z,66.63
2022-10-05T05:14:28.995Z,67.14
2022-10-05T05:17:13.316Z,67.33
2022-10-05T05:20:01.857Z,67.90
2022-10-05T05:22:53.841Z,67.81
2022-10-05T05:25:35.597Z,67.23
2022-10-05T05:28:30.546Z,66.98
2022-10-05T05:31:30.611Z,66.29
2022-10-05T05:34:01.390Z,65.90
2022-10-05T05:36:54.592Z,66.22
2022-10-05T05:39:36.862Z,66.13
2022-10-05T05:42:47.207Z,66.26
2022-10-05T05:45:29.792Z,66.31
2022-10-05T05:47:59.480Z,66.17
2022-10-05T05:50:48.693Z,66.12
2022-10-05T05:53:29.513Z,66.24
2022-10-05T05:56:05.272Z,66.26
2022-10-05T05:58:39.942Z,66.31
2022-10-05T06:01:44.156Z,66.02
2022-10-05T06:04:28.238Z,65.92
2022-10-05T06:06:58.066Z,65.83
2022-10-05T06:09:44.512Z,65.56
2022-10-05T06:12:41.347Z,65.75
2022-10-05T06:15:41.863Z,66.21
2022-10-05T06:18:16.105Z,65.87
2022-10-05T06:20:53.202Z,65.97
2022-10-05T06:23:27.417Z,66.26
2022-10-05T06:26:11.090Z,66.04
2022-10-05T06:28:41.491Z,66.08
2022-10-05T06:31:46.159Z,66.06
2022-10-05T06:34:31.285Z,66.22
2022-10-05T06:37:18.702Z,66.78
2022-10-05T06:39:51.911Z,66.89
2022-10-05T06:42:38.859Z,67.09
2022-10-05T06:45:48.235Z,66.99
2022-10-05T06:48:54.157Z,67.06
2022-10-05T06:51:37.900Z,67.79
2022-10-05T06:54:45.702Z,68.05
2022-10-05T06:57:32.817Z,68.39
2022-10-05T07:00:21.918Z,68.28
2022-10-05T07:03:24.960Z,68.37
2022-10-05T07:06:25.797Z,68.29
2022-10-05T07:09:27.164Z,68.05
2022-10-05T07:12:05.407Z,68.01
2022-10-05T07:14:50.262Z,67.54
2022-10-05T07:17:28.828Z,67.01
2022-10-05T07:20:01.982Z,66.57
2022-10-05T07:22:38.087Z,66.67
2022-10-05T07:25:23.494Z,66.68
2022-10-05T07:28:05.427Z,66.78
2022-10-05T07:30:41.566Z,66.42
2022-10-05T07:33:17.842Z,66.44
2022-10-05T07:36:20.143Z,65.93
2022-10-05T07:39:06.041Z,66.46
2022-10-05T07:41:47.545Z,66.20
2022-10-05T07:44:22.555Z,66.02
2022-10-05T07:46:58.654Z,65.68
2022-10-05T07:49:40.440Z,65.23
2022-10-05T07:52:34.926Z,65.15
2022-10-05T07:55:17.750Z,65.12
2022-10-05T07:57:48.524Z,65.05
2022-10-05T08:00:22.370Z,64.92
2022-10-05T08:03:14.095Z,64.15
2022-10-05T08:05:42.562Z,64.58
2022-10-05T08:08:23.949Z,64.09
2022-10-05T08:11:11.190Z,63.79
2022-10-05T08:13:45.659Z,63.73
2022-10-05T08:16:13.287Z,63.26
2022-10-05T08:18:58.136Z,63.15
2022-10-05T08:21:35.456Z,63.29
2022-10-05T08:24:30.681Z,63.15
2022-10-05T08:27:12.146Z,62.63
2022-10-05T08:29:54.021Z,62.22
2022-10-05T08:32:27.903Z,61.92
2022-10-05T08:35:17.771Z,62.06
2022-10-05T08:37:46.156Z,62.19
2022-10-05T08:40:34.076Z,62.47
2022-10-05T08:43:36.234Z,62.43
2022-10-05T08:46:11.793Z,63.06
2022-10-05T08:48:56.205Z,62.84
2022-10-05T08:51:41.558Z,63.09
2022-10-05T08:54:40.439Z,61.81
2022-10-05T08:57:22.105Z,61.47
2022-10-05T09:00:00.546Z,62.16
2022-10-05T09:02:50.330Z,61.84
2022-10-05T09:05:58.342Z,62.38
2022-10-05T09:08:46.118Z,62.46
2022-10-05T09:11:17.038Z,62.57
2022-10-05T09:14:05.145Z,62.71
2022-10-05T09:16:42.691Z,62.27
2022-10-05T09:19:46.926Z,61.68
2022-10-05T09:22:47.430Z,61.44
2022-10-05T09:25:18.437Z,61.36
2022-10-05T09:28:25.246Z,61.78
2022-10-05T09:31:29.881Z,61.05
2022-10-05T09:34:05.349Z,60.84
2022-10-05T09:37:13.958Z,60.79
2022-10-05T09:40:05.500Z,60.87
2022-10-05T09:43:00.027Z,61.15
2022-10-05T09:45:45.317Z,61.34
2022-10-05T09:48:36.653Z,60.65
2022-10-05T09:51:15.340Z,60.39
2022-10-05T09:54:03.787Z,61.20
2022-10-05T09:56:45.795Z,60.60
2022-10-05T09:59:38.091Z,59.90
2022-10-05T10:02:18.431Z,59.51
2022-10-05T10:05:10.099Z,59.15
2022-10-05T10:08:07.272Z,58.97
2022-10-05T10:10:49.672Z,59.20
2022-10-05T10:13:28.414Z,58.65
2022-10-05T10:16:16.424Z,58.55
2022-10-05T10:18:45.966Z,57.74
2022-10-05T10:21:37.569Z,56.52
2022-10-05T10:24:30.433Z,56.12
2022-10-05T10:27:36.126Z,55.44
2022-10-05T10:30:25.139Z,55.79
2022-10-05T10:33:19.201Z,53.63
2022-10-05T10:36:00.489Z,50.60
2022-10-05T10:38:58.468Z,45.18
2022-10-05T10:41:30.435Z,43.98
2022-10-05T10:44:29.352Z,41.62
2022-10-05T10:47:14.749Z,38.69
2022-10-05T10:49:44.091Z,37.43
2022-10-05T10:52:45.161Z,36.59
2022-10-05T10:55:30.905Z,34.97
2022-10-05T10:58:39.801Z,33.19
2022-10-05T11:01:21.844Z,31.35
2022-10-05T11:04:27.237Z,30.20
2022-10-05T11:07:30.335Z,27.37
2022-10-05T11:10:21.916Z,27.31
2022-10-05T11:13:11.704Z,26.76
2022-10-05T11:16:00.778Z,26.40
2022-10-05T11:18:48.933Z,26.20
2022-10-05T11:21:31.715Z,24.94
2022-10-05T11:24:34.573Z,25.25
2022-10-05T11:27:25.784Z,24.61
2022-10-05T11:30:11.585Z,23.50
2022-10-05T11:32:56.783Z,23.22
2022-10-05T11:35:51.445Z,23.08
2022-10-05T11:38:58.926Z,22.47
2022-10-05T11:42:06.743Z,22.57
2022-10-05T11:45:01.447Z,21.82
2022-10-05T11:47:32.414Z,21.93
2022-10-05T11:50:24.497Z,22.39
2022-10-05T11:53:12.865Z,23.02
2022-10-05T11:55:45.515Z,23.28
2022-10-05T11:58:54.184Z,23.77
2022-10-05T12:01:36.325Z,24.11
2022-10-05T12:04:18.290Z,24.51
2022-10-05T12:06:53.544Z,24.92
2022-10-05T12:10:05.427Z,25.96
2022-10-05T12:13:08.572Z,28.08
2022-10-05T12:15:51.662Z,30.08
2022-10-05T12:18:30.242Z,31.24
2022-10-05T12:21:02.651Z,32.60
2022-10-05T12:23:40.106Z,33.24
2022-10-05T12:26:11.799Z,33.62
2022-10-05T12:28:46.858Z,34.28
2022-10-05T12:31:16.421Z,35.30
2022-10-05T12:34:01.736Z,35.30
2022-10-05T12:37:02.996Z,35.22
2022-10-05T12:39:54.570Z,35.55
2022-10-05T12:42:59.582Z,36.19
2022-10-05T12:45:47.570Z,36.83
2022-10-05T12:48:40.004Z,36.33
2022-10-05T12:51:19.765Z,36.97
2022-10-05T12:54:03.171Z,35.32
2022-10-05T12:56:44.551Z,36.05
2022-10-05T12:59:21.912Z,36.60
2022-10-05T13:02:01.437Z,36.66
2022-10-05T13:04:55.654Z,37.13
2022-10-05T13:07:54.561Z,36.78
2022-10-05T13:10:36.279Z,36.88
2022-10-05T13:13:15.255Z,36.74
2022-10-05T13:15:54.623Z,37.32
2022-10-05T13:18:40.162Z,37.30
2022-10-05T13:21:24.674Z,38.10
2022-10-05T13:24:20.088Z,37.95
2022-10-05T13:26:53.543Z,37.81
2022-10-05T13:29:45.510Z,37.90
2022-10-05T13:32:21.269Z,37.78
2022-10-05T13:35:04.224Z,38.52
2022-10-05T13:38:08.069Z,38.29
2022-10-05T13:41:07.191Z,38.73
2022-10-05T13:43:44.783Z,38.96
2022-10-05T13:46:40.555Z,38.94
2022-10-05T13:49:21.778Z,38.78
2022-10-05T13:52:19.527Z,38.83
2022-10-05T13:55:01.616Z,38.98
2022-10-05T13:57:46.564Z,39.06
2022-10-05T14:00:15.950Z,39.75
2022-10-05T14:02:47.079Z,39.53
2022-10-05T14:05:20.176Z,40.40
2022-10-05T14:07:55.221Z,40.28
2022-10-05T14:10:36.516Z,41.08
2022-10-05T14:13:20.789Z,41.13
2022-10-05T14:16:12.296Z,41.75
2022-10-05T14:19:07.811Z,42.03
2022-10-05T14:21:58.842Z,42.25
2022-10-05T14:24:49.452Z,42.00
2022-10-05T14:27:29.716Z,42.28
2022-10-05T14:30:00.449Z,42.50
2022-10-05T14:32:31.999Z,43.11
2022-10-05T14:35:10.621Z,42.64
2022-10-05T14:37:51.254Z,43.04
2022-10-05T14:40:25.387Z,43.62
2022-10-05T14:42:52.449Z,43.41
2022-10-05T14:45:29.858Z,43.52
2022-10-05T14:48:09.348Z,43.55
2022-10-05T14:50:52.316Z,43.37
2022-10-05T14:53:22.334Z,43.13
2022-10-05T14:55:57.667Z,42.92
2022-10-05T14:59:08.437Z,42.96
2022-10-05T15:01:40.221Z,43.11
2022-10-05T15:04:33.840Z,43.18
2022-10-05T15:07:20.084Z,43.32
2022-10-05T15:10:02.358Z,43.22
2022-10-05T15:12:38.463Z,44.00
2022-10-05T15:15:25.670Z,43.47
2022-10-05T15:18:19.666Z,43.75
2022-10-05T15:21:23.849Z,44.69
2022-10-05T15:23:59.272Z,44.58
2022-10-05T15:26:45.887Z,45.23
2022-10-05T15:29:36.113Z,45.09
2022-10-05T15:32:03.242Z,45.24
2022-10-05T15:34:52.178Z,45.78
2022-10-05T15:37:55.084Z,45.58
2022-10-05T15:40:30.534Z,45.52
2022-10-05T15:43:03.881Z,45.72
2022-10-05T15:45:33.895Z,46.08
2022-10-05T15:48:23.951Z,46.14
2022-10-05T15:51:16.943Z,46.13
2022-10-05T15:53:43.754Z,46.38
2022-10-05T15:56:23.331Z,47.08
2022-10-05T15:58:50.239Z,46.86
2022-10-05T16:01:19.981Z,46.92
2022-10-05T16:03:58.251Z,47.20
2022-10-05T16:07:08.486Z,47.50
2022-10-05T16:10:05.189Z,48.23
2022-10-05T16:12:50.554Z,48.52
2022-10-05T16:15:34.586Z,48.92
2022-10-05T16:18:01.559Z,48.84
2022-10-05T16:20:47.414Z,48.92
2022-10-05T16:23:41.734Z,49.49
2022-10-05T16:26:38.484Z,49.41
2022-10-05T16:29:29.971Z,49.72
2022-10-05T16:32:21.310Z,50.59
2022-10-05T16:35:08.618Z,50.43
2022-10-05T16:37:46.068Z,50.62
2022-10-05T16:40:41.597Z,50.69
2022-10-05T16:43:16.876Z,51.07
2022-10-05T16:45:51.745Z,50.86
2022-10-05T16:48:31.800Z,50.70
2022-10-05T16:51:16.803Z,50.67
2022-10-05T16:53:45.402Z,51.31
2022-10-05T16:56:17.212Z,51.41
2022-10-05T16:58:52.960Z,51.03
2022-10-05T17:01:43.629Z,51.16
2022-10-05T17:04:24.510Z,51.78
2022-10-05T17:07:03.170Z,51.54
2022-10-05T17:09:48.686Z,51.55
2022-10-05T17:12:45.500Z,51.83
2022-10-05T17:15:41.167Z,51.86
2022-10-05T17:18:20.265Z,52.30
2022-10-05T17:20:49.959Z,52.40
2022-10-05T17:23:26.691Z,52.24
2022-10-05T17:25:56.074Z,52.63
2022-10-05T17:28:44.710Z,52.91
2022-10-05T17:31:22.438Z,52.84
2022-10-05T17:34:11.142Z,52.94
2022-10-05T17:36:42.794Z,53.28
2022-10-05T17:39:20.118Z,53.13
2022-10-05T17:41:47.589Z,53.58
2022-10-05T17:44:19.075Z,53.33
2022-10-05T17:46:51.865Z,53.28
2022-10-05T17:49:43.069Z,53.31
2022-10-05T17:52:43.748Z,53.89
2022-10-05T17:55:26.653Z,54.29
2022-10-05T17:57:58.489Z,54.67
2022-10-05T18:00:31.359Z,54.71
2022-10-05T18:02:58.327Z,54.79
2022-10-05T18:05:28.017Z,54.97
2022-10-05T18:08:13.053Z,54.88
2022-10-05T18:11:10.951Z,55.22
2022-10-05T18:13:44.641Z,55.20
2022-10-05T18:16:11.797Z,55.30
2022-10-05T18:18:44.646Z,55.18
2022-10-05T18:21:14.398Z,55.72
2022-10-05T18:24:03.035Z,55.41
2022-10-05T18:27:02.420Z,55.35
2022-10-05T18:30:03.328Z,54.80
2022-10-05T18:32:39.800Z,54.81
2022-10-05T18:35:15.080Z,55.14
2022-10-05T18:38:03.259Z,55.38
2022-10-05T18:40:46.919Z,54.94
2022-10-05T18:43:40.869Z,55.03
2022-10-05T18:46:21.851Z,55.19
2022-10-05T18:49:16.289Z,54.74
2022-10-05T18:51:55.194Z,55.38
2022-10-05T18:54:25.935Z,55.02
2022-10-05T18:56:53.078Z,54.77
2022-10-05T18:59:34.828Z,54.97
2022-10-05T19:02:14.931Z,54.86
2022-10-05T19:04:52.527Z,55.14
2022-10-05T19:07:45.498Z,55.47
2022-10-05T19:10:18.992Z,55.62
2022-10-05T19:13:00.797Z,55.51
2022-10-05T19:15:53.928Z,55.11
2022-10-05T19:18:43.710Z,55.28
2022-10-05T19:21:37.854Z,55.44
2022-10-05T19:24:40.545Z,55.31
2022-10-05T19:27:32.588Z,55.59
2022-10-05T19:30:23.933Z,55.37
2022-10-05T19:33:18.213Z,55.39
2022-10-05T19:35:58.417Z,55.42
2022-10-05T19:38:55.482Z,55.63
2022-10-05T19:41:47.321Z,55.50
2022-10-05T19:44:25.637Z,55.03
2022-10-05T19:47:24.019Z,55.37
2022-10-05T19:49:55.279Z,55.40
2022-10-05T19:52:31.053Z,56.86
2022-10-05T19:55:24.919Z,56.26
2022-10-05T19:58:01.212Z,56.01
2022-10-05T20:00:32.379Z,56.14
2022-10-05T20:03:11.936Z,55.94
2022-10-05T20:05:39.944Z,56.39
2022-10-05T20:08:07.867Z,56.45
2022-10-05T20:10:34.835Z,56.58
2022-10-05T20:13:04.453Z,56.69
2022-10-05T20:15:52.347Z,56.30
2022-10-05T20:18:57.762Z,56.19
2022-10-05T20:21:45.755Z,56.54
2022-10-05T20:24:15.650Z,56.58
2022-10-05T20:27:06.489Z,57.14
2022-10-05T20:29:35.415Z,57.30
2022-10-05T20:32:07.899Z,57.23
2022-10-05T20:34:42.626Z,57.47
2022-10-05T20:37:11.508Z,57.79
2022-10-05T20:39:39.453Z,58.14
2022-10-05T20:42:07.357Z,58.16
2022-10-05T20:44:36.517Z,58.00
2022-10-05T20:47:04.320Z,58.92
2022-10-05T20:49:31.839Z,58.53
2022-10-05T20:51:58.849Z,59.03
2022-10-05T20:54:26.677Z,59.24
2022-10-05T20:56:55.580Z,59.28
2022-10-05T20:59:24.174Z,59.65
2022-10-05T21:01:51.554Z,59.72
2022-10-05T21:04:20.647Z,60.22
2022-10-05T21:06:47.425Z,59.98
2022-10-05T21:09:15.492Z,60.12
2022-10-05T21:11:42.699Z,60.19
2022-10-05T21:14:11.365Z,60.07
2022-10-05T21:16:40.766Z,60.49
2022-10-05T21:19:12.441Z,60.60
2022-10-05T21:21:40.535Z,60.80
2022-10-05T21:24:08.001Z,60.94
2022-10-05T21:26:34.712Z,61.30
2022-10-05T21:29:01.963Z,61.34
2022-10-05T21:31:29.495Z,61.03
2022-10-05T21:33:56.586Z,60.67
2022-10-05T21:36:24.737Z,60.13
2022-10-05T21:38:53.452Z,59.80
2022-10-05T21:41:21.737Z,59.64
2022-10-05T21:43:48.875Z,59.73
2022-10-05T21:46:21.855Z,59.21
2022-10-05T21:48:49.774Z,59.21
2022-10-05T21:51:18.799Z,58.91
2022-10-05T21:54:13.639Z,58.80
2022-10-05T21:56:44.133Z,58.63
2022-10-05T21:59:14.724Z,58.73
2022-10-05T22:01:41.362Z,58.73
2022-10-05T22:04:08.121Z,58.87
2022-10-05T22:06:36.008Z,59.14
2022-10-05T22:09:05.305Z,58.99
2022-10-05T22:11:32.880Z,59.25
2022-10-05T22:14:02.651Z,58.73
2022-10-05T22:16:32.747Z,59.23
2022-10-05T22:19:03.701Z,59.15
2022-10-05T22:21:32.801Z,59.90
2022-10-05T22:24:02.309Z,59.72
2022-10-05T22:26:29.282Z,59.52
2022-10-05T22:28:56.930Z,59.91
2022-10-05T22:31:23.763Z,59.42
2022-10-05T22:33:50.521Z,60.17
2022-10-05T22:36:17.476Z,60.11
2022-10-05T22:38:46.397Z,60.45
2022-10-05T22:41:14.659Z,60.48
2022-10-05T22:43:41.339Z,60.49
2022-10-05T22:46:12.295Z,60.32
2022-10-05T22:48:39.956Z,60.44
2022-10-05T22:51:07.576Z,60.76
2022-10-05T22:53:34.982Z,60.97
2022-10-05T22:56:06.423Z,61.63
2022-10-05T22:58:33.042Z,60.77
2022-10-05T23:01:02.143Z,61.19
2022-10-05T23:03:29.066Z,61.24
2022-10-05T23:06:00.152Z,61.44
2022-10-05T23:08:27.347Z,61.79
2022-10-05T23:10:54.249Z,61.26
2022-10-05T23:13:22.324Z,61.21
2022-10-05T23:15:49.077Z,61.01
2022-10-05T23:18:16.626Z,61.38
2022-10-05T23:20:43.320Z,61.36
2022-10-05T23:23:10.051Z,61.39
2022-10-05T23:25:36.806Z,61.26
2022-10-05T23:28:03.506Z,61.30
2022-10-05T23:30:30.297Z,61.75
2022-10-05T23:32:57.005Z,61.62
2022-10-05T23:35:23.645Z,61.43
2022-10-05T23:37:50.284Z,61.30
2022-10-05T23:40:16.971Z,62.07
2022-10-05T23:42:43.606Z,61.84
2022-10-05T23:45:11.867Z,61.94
2022-10-05T23:47:39.926Z,62.05
2022-10-05T23:50:08.446Z,62.65
2022-10-05T23:52:35.564Z,62.21
2022-10-05T23:55:04.321Z,62.09
2022-10-05T23:57:31.380Z,62.31
2022-10-05T23:59:58.008Z,62.52
